sensor_id;sensor_type;location;lat;lon;timestamp;temperature;humidity
15483;DHT22;7843;50.330;7.312;2023-08-24T00:01:54;18.60;99.90
15483;DHT22;7843;50.330;7.312;2023-08-24T00:04:21;18.60;99.90
15483;DHT22;7843;50.330;7.312;2023-08-24T00:06:49;18.60;99.90
15483;DHT22;7843;50.330;7.312;2023-08-24T00:09:15;18.70;99.90
15483;DHT22;7843;50.330;7.312;2023-08-24T00:11:42;18.70;99.90
15483;DHT22;7843;50.330;7.312;2023-08-24T00:14:09;18.70;99.90
15483;DHT22;7843;50.330;7.312;2023-08-24T00:16:36;18.60;99.90
15483;DHT22;7843;50.330;7.312;2023-08-24T00:19:03;18.60;99.90
15483;DHT22;7843;50.330;7.312;2023-08-24T00:21:30;18.60;99.90
15483;DHT22;7843;50.330;7.312;2023-08-24T00:23:57;18.60;99.90
15483;DHT22;7843;50.330;7.312;2023-08-24T00:26:24;18.70;99.90
15483;DHT22;7843;50.330;7.312;2023-08-24T00:28:51;18.60;99.90
15483;DHT22;7843;50.330;7.312;2023-08-24T00:31:18;18.60;99.90
15483;DHT22;7843;50.330;7.312;2023-08-24T00:33:45;18.60;99.90
15483;DHT22;7843;50.330;7.312;2023-08-24T00:36:12;18.50;99.90
15483;DHT22;7843;50.330;7.312;2023-08-24T00:38:39;18.50;99.90
15483;DHT22;7843;50.330;7.312;2023-08-24T00:41:05;18.40;99.90
15483;DHT22;7843;50.330;7.312;2023-08-24T00:43:32;18.40;99.90
15483;DHT22;7843;50.330;7.312;2023-08-24T00:46:00;18.40;99.90
15483;DHT22;7843;50.330;7.312;2023-08-24T00:48:28;18.40;99.90
15483;DHT22;7843;50.330;7.312;2023-08-24T00:51:00;18.40;99.90
15483;DHT22;7843;50.330;7.312;2023-08-24T00:53:30;18.40;99.90
15483;DHT22;7843;50.330;7.312;2023-08-24T00:55:58;18.30;99.90
15483;DHT22;7843;50.330;7.312;2023-08-24T00:58:27;18.30;99.90
15483;DHT22;7843;50.330;7.312;2023-08-24T01:00:54;18.30;99.90
15483;DHT22;7843;50.330;7.312;2023-08-24T01:03:22;18.20;99.90
15483;DHT22;7843;50.330;7.312;2023-08-24T01:05:50;18.30;99.90
15483;DHT22;7843;50.330;7.312;2023-08-24T01:08:17;18.20;99.90
15483;DHT22;7843;50.330;7.312;2023-08-24T01:10:54;18.20;99.90
15483;DHT22;7843;50.330;7.312;2023-08-24T01:13:31;18.20;99.90
15483;DHT22;7843;50.330;7.312;2023-08-24T01:16:13;18.20;99.90
15483;DHT22;7843;50.330;7.312;2023-08-24T01:18:42;18.20;99.90
15483;DHT22;7843;50.330;7.312;2023-08-24T01:21:10;18.20;99.90
15483;DHT22;7843;50.330;7.312;2023-08-24T01:23:46;18.20;99.90
15483;DHT22;7843;50.330;7.312;2023-08-24T01:26:17;18.20;99.90
15483;DHT22;7843;50.330;7.312;2023-08-24T01:28:46;18.20;99.90
15483;DHT22;7843;50.330;7.312;2023-08-24T01:31:16;18.10;99.90
15483;DHT22;7843;50.330;7.312;2023-08-24T01:33:44;18.10;99.90
15483;DHT22;7843;50.330;7.312;2023-08-24T01:36:12;18.10;99.90
15483;DHT22;7843;50.330;7.312;2023-08-24T01:38:41;18.10;99.90
15483;DHT22;7843;50.330;7.312;2023-08-24T01:41:24;18.20;99.90
15483;DHT22;7843;50.330;7.312;2023-08-24T01:43:53;18.10;99.90
15483;DHT22;7843;50.330;7.312;2023-08-24T01:46:22;18.00;99.90
15483;DHT22;7843;50.330;7.312;2023-08-24T01:48:52;18.00;99.90
15483;DHT22;7843;50.330;7.312;2023-08-24T01:51:19;17.90;99.90
15483;DHT22;7843;50.330;7.312;2023-08-24T01:53:46;17.90;99.90
15483;DHT22;7843;50.330;7.312;2023-08-24T01:56:15;17.90;99.90
15483;DHT22;7843;50.330;7.312;2023-08-24T01:58:45;17.90;99.90
15483;DHT22;7843;50.330;7.312;2023-08-24T02:01:12;17.90;99.90
15483;DHT22;7843;50.330;7.312;2023-08-24T02:03:39;17.80;99.90
15483;DHT22;7843;50.330;7.312;2023-08-24T02:06:06;17.80;99.90
15483;DHT22;7843;50.330;7.312;2023-08-24T02:08:33;17.70;99.90
15483;DHT22;7843;50.330;7.312;2023-08-24T02:11:00;17.70;99.90
15483;DHT22;7843;50.330;7.312;2023-08-24T02:13:27;17.60;99.90
15483;DHT22;7843;50.330;7.312;2023-08-24T02:16:04;17.60;99.90
15483;DHT22;7843;50.330;7.312;2023-08-24T02:18:32;17.50;99.90
15483;DHT22;7843;50.330;7.312;2023-08-24T02:20:59;17.50;99.90
15483;DHT22;7843;50.330;7.312;2023-08-24T02:23:26;17.50;99.90
15483;DHT22;7843;50.330;7.312;2023-08-24T02:25:53;17.40;99.90
15483;DHT22;7843;50.330;7.312;2023-08-24T02:28:19;17.40;99.90
15483;DHT22;7843;50.330;7.312;2023-08-24T02:30:46;17.40;99.90
15483;DHT22;7843;50.330;7.312;2023-08-24T02:33:13;17.40;99.90
15483;DHT22;7843;50.330;7.312;2023-08-24T02:35:39;17.30;99.90
15483;DHT22;7843;50.330;7.312;2023-08-24T02:38:06;17.30;99.90
15483;DHT22;7843;50.330;7.312;2023-08-24T02:40:33;17.30;99.90
15483;DHT22;7843;50.330;7.312;2023-08-24T02:43:00;17.30;99.90
15483;DHT22;7843;50.330;7.312;2023-08-24T02:45:27;17.30;99.90
15483;DHT22;7843;50.330;7.312;2023-08-24T02:47:53;17.30;99.90
15483;DHT22;7843;50.330;7.312;2023-08-24T02:50:20;17.30;99.90
15483;DHT22;7843;50.330;7.312;2023-08-24T02:52:47;17.30;99.90
15483;DHT22;7843;50.330;7.312;2023-08-24T02:55:14;17.30;99.90
15483;DHT22;7843;50.330;7.312;2023-08-24T02:57:40;17.30;99.90
15483;DHT22;7843;50.330;7.312;2023-08-24T03:00:07;17.40;99.90
15483;DHT22;7843;50.330;7.312;2023-08-24T03:02:36;17.40;99.90
15483;DHT22;7843;50.330;7.312;2023-08-24T03:05:03;17.40;99.90
15483;DHT22;7843;50.330;7.312;2023-08-24T03:07:32;17.50;99.90
15483;DHT22;7843;50.330;7.312;2023-08-24T03:09:59;17.50;99.90
15483;DHT22;7843;50.330;7.312;2023-08-24T03:12:26;17.50;99.90
15483;DHT22;7843;50.330;7.312;2023-08-24T03:14:52;17.60;99.90
15483;DHT22;7843;50.330;7.312;2023-08-24T03:17:21;17.70;99.90
15483;DHT22;7843;50.330;7.312;2023-08-24T03:19:48;17.70;99.90
15483;DHT22;7843;50.330;7.312;2023-08-24T03:22:15;17.70;99.90
15483;DHT22;7843;50.330;7.312;2023-08-24T03:24:41;17.70;99.90
15483;DHT22;7843;50.330;7.312;2023-08-24T03:27:08;17.70;99.90
15483;DHT22;7843;50.330;7.312;2023-08-24T03:29:35;17.80;99.90
15483;DHT22;7843;50.330;7.312;2023-08-24T03:32:02;17.80;99.90
15483;DHT22;7843;50.330;7.312;2023-08-24T03:34:28;17.80;99.90
15483;DHT22;7843;50.330;7.312;2023-08-24T03:36:56;17.80;99.90
15483;DHT22;7843;50.330;7.312;2023-08-24T03:39:23;17.90;99.90
15483;DHT22;7843;50.330;7.312;2023-08-24T03:41:49;18.00;99.90
15483;DHT22;7843;50.330;7.312;2023-08-24T03:44:16;18.00;99.90
15483;DHT22;7843;50.330;7.312;2023-08-24T03:46:43;18.00;99.90
15483;DHT22;7843;50.330;7.312;2023-08-24T03:49:10;17.90;99.90
15483;DHT22;7843;50.330;7.312;2023-08-24T03:51:36;18.00;99.90
15483;DHT22;7843;50.330;7.312;2023-08-24T03:54:03;18.00;99.90
15483;DHT22;7843;50.330;7.312;2023-08-24T03:56:32;18.10;99.90
15483;DHT22;7843;50.330;7.312;2023-08-24T03:58:58;18.10;99.90
15483;DHT22;7843;50.330;7.312;2023-08-24T04:01:25;18.10;99.90
15483;DHT22;7843;50.330;7.312;2023-08-24T04:03:52;18.00;99.90
15483;DHT22;7843;50.330;7.312;2023-08-24T04:06:19;18.00;99.90
15483;DHT22;7843;50.330;7.312;2023-08-24T04:08:48;18.10;99.90
15483;DHT22;7843;50.330;7.312;2023-08-24T04:11:15;18.10;99.90
15483;DHT22;7843;50.330;7.312;2023-08-24T04:13:42;18.10;99.90
15483;DHT22;7843;50.330;7.312;2023-08-24T04:16:08;18.10;99.90
15483;DHT22;7843;50.330;7.312;2023-08-24T04:18:35;18.10;99.90
15483;DHT22;7843;50.330;7.312;2023-08-24T04:21:02;18.10;99.90
15483;DHT22;7843;50.330;7.312;2023-08-24T04:23:29;18.10;99.90
15483;DHT22;7843;50.330;7.312;2023-08-24T04:25:56;18.10;99.90
15483;DHT22;7843;50.330;7.312;2023-08-24T04:28:23;18.10;99.90
15483;DHT22;7843;50.330;7.312;2023-08-24T04:30:51;18.10;99.90
15483;DHT22;7843;50.330;7.312;2023-08-24T04:33:18;18.10;99.90
15483;DHT22;7843;50.330;7.312;2023-08-24T04:35:47;18.10;99.90
15483;DHT22;7843;50.330;7.312;2023-08-24T04:38:15;18.20;99.90
15483;DHT22;7843;50.330;7.312;2023-08-24T04:40:47;18.10;99.90
15483;DHT22;7843;50.330;7.312;2023-08-24T04:43:14;18.10;99.90
15483;DHT22;7843;50.330;7.312;2023-08-24T04:45:41;18.10;99.90
15483;DHT22;7843;50.330;7.312;2023-08-24T04:48:08;18.10;99.90
15483;DHT22;7843;50.330;7.312;2023-08-24T04:50:34;18.20;99.90
15483;DHT22;7843;50.330;7.312;2023-08-24T04:53:01;18.10;99.90
15483;DHT22;7843;50.330;7.312;2023-08-24T04:55:28;18.10;99.90
15483;DHT22;7843;50.330;7.312;2023-08-24T04:57:55;18.10;99.90
15483;DHT22;7843;50.330;7.312;2023-08-24T05:00:21;18.10;99.90
15483;DHT22;7843;50.330;7.312;2023-08-24T05:02:49;18.10;99.90
15483;DHT22;7843;50.330;7.312;2023-08-24T05:05:16;18.10;99.90
15483;DHT22;7843;50.330;7.312;2023-08-24T05:07:43;18.10;99.90
15483;DHT22;7843;50.330;7.312;2023-08-24T05:10:10;18.00;99.90
15483;DHT22;7843;50.330;7.312;2023-08-24T05:12:37;18.00;99.90
15483;DHT22;7843;50.330;7.312;2023-08-24T05:15:05;18.00;99.90
15483;DHT22;7843;50.330;7.312;2023-08-24T05:17:31;18.00;99.90
15483;DHT22;7843;50.330;7.312;2023-08-24T05:19:59;18.00;99.90
15483;DHT22;7843;50.330;7.312;2023-08-24T05:22:25;17.90;99.90
15483;DHT22;7843;50.330;7.312;2023-08-24T05:24:52;17.90;99.90
15483;DHT22;7843;50.330;7.312;2023-08-24T05:27:19;17.90;99.90
15483;DHT22;7843;50.330;7.312;2023-08-24T05:29:45;17.90;99.90
15483;DHT22;7843;50.330;7.312;2023-08-24T05:32:12;17.90;99.90
15483;DHT22;7843;50.330;7.312;2023-08-24T05:34:39;17.90;99.90
15483;DHT22;7843;50.330;7.312;2023-08-24T05:37:05;17.90;99.90
15483;DHT22;7843;50.330;7.312;2023-08-24T05:39:32;17.90;99.90
15483;DHT22;7843;50.330;7.312;2023-08-24T05:41:59;17.90;99.90
15483;DHT22;7843;50.330;7.312;2023-08-24T05:44:26;18.00;99.90
15483;DHT22;7843;50.330;7.312;2023-08-24T05:46:52;18.00;99.90
15483;DHT22;7843;50.330;7.312;2023-08-24T05:49:19;18.00;99.90
15483;DHT22;7843;50.330;7.312;2023-08-24T05:51:46;18.00;99.90
15483;DHT22;7843;50.330;7.312;2023-08-24T05:54:14;18.00;99.90
15483;DHT22;7843;50.330;7.312;2023-08-24T05:56:44;18.00;99.90
15483;DHT22;7843;50.330;7.312;2023-08-24T05:59:11;18.00;99.90
15483;DHT22;7843;50.330;7.312;2023-08-24T06:01:38;18.00;99.90
15483;DHT22;7843;50.330;7.312;2023-08-24T06:04:05;18.10;99.90
15483;DHT22;7843;50.330;7.312;2023-08-24T06:06:32;18.10;99.90
15483;DHT22;7843;50.330;7.312;2023-08-24T06:08:59;18.20;99.90
15483;DHT22;7843;50.330;7.312;2023-08-24T06:11:26;18.30;99.90
15483;DHT22;7843;50.330;7.312;2023-08-24T06:13:52;18.30;99.90
15483;DHT22;7843;50.330;7.312;2023-08-24T06:16:21;18.30;99.90
15483;DHT22;7843;50.330;7.312;2023-08-24T06:18:47;18.30;99.90
15483;DHT22;7843;50.330;7.312;2023-08-24T06:21:16;18.30;99.90
15483;DHT22;7843;50.330;7.312;2023-08-24T06:23:43;18.30;99.90
15483;DHT22;7843;50.330;7.312;2023-08-24T06:26:11;18.30;99.90
15483;DHT22;7843;50.330;7.312;2023-08-24T06:28:38;18.40;99.90
15483;DHT22;7843;50.330;7.312;2023-08-24T06:31:04;18.40;99.90
15483;DHT22;7843;50.330;7.312;2023-08-24T06:33:34;18.40;99.90
15483;DHT22;7843;50.330;7.312;2023-08-24T06:36:03;18.40;99.90
15483;DHT22;7843;50.330;7.312;2023-08-24T06:38:31;18.40;99.90
15483;DHT22;7843;50.330;7.312;2023-08-24T06:40:58;18.40;99.90
15483;DHT22;7843;50.330;7.312;2023-08-24T06:43:26;18.40;99.90
15483;DHT22;7843;50.330;7.312;2023-08-24T06:45:54;18.40;99.90
15483;DHT22;7843;50.330;7.312;2023-08-24T06:48:21;18.40;99.90
15483;DHT22;7843;50.330;7.312;2023-08-24T06:50:48;18.50;99.90
15483;DHT22;7843;50.330;7.312;2023-08-24T06:53:15;18.60;99.90
15483;DHT22;7843;50.330;7.312;2023-08-24T06:55:42;18.60;99.90
15483;DHT22;7843;50.330;7.312;2023-08-24T06:58:09;18.60;99.90
15483;DHT22;7843;50.330;7.312;2023-08-24T07:00:35;18.60;99.90
15483;DHT22;7843;50.330;7.312;2023-08-24T07:03:03;18.60;99.90
15483;DHT22;7843;50.330;7.312;2023-08-24T07:05:31;18.70;99.90
15483;DHT22;7843;50.330;7.312;2023-08-24T07:07:58;18.70;99.90
15483;DHT22;7843;50.330;7.312;2023-08-24T07:10:25;18.70;99.90
15483;DHT22;7843;50.330;7.312;2023-08-24T07:12:51;18.70;99.90
15483;DHT22;7843;50.330;7.312;2023-08-24T07:15:18;18.80;99.90
15483;DHT22;7843;50.330;7.312;2023-08-24T07:17:45;18.80;99.90
15483;DHT22;7843;50.330;7.312;2023-08-24T07:20:12;18.90;99.90
15483;DHT22;7843;50.330;7.312;2023-08-24T07:22:39;19.00;99.90
15483;DHT22;7843;50.330;7.312;2023-08-24T07:25:07;19.10;99.90
15483;DHT22;7843;50.330;7.312;2023-08-24T07:27:34;19.20;99.90
15483;DHT22;7843;50.330;7.312;2023-08-24T07:30:02;19.30;99.90
15483;DHT22;7843;50.330;7.312;2023-08-24T07:32:37;19.40;99.90
15483;DHT22;7843;50.330;7.312;2023-08-24T07:35:04;19.40;99.90
15483;DHT22;7843;50.330;7.312;2023-08-24T07:37:32;19.60;99.90
15483;DHT22;7843;50.330;7.312;2023-08-24T07:39:59;19.70;99.90
15483;DHT22;7843;50.330;7.312;2023-08-24T07:42:26;19.80;99.90
15483;DHT22;7843;50.330;7.312;2023-08-24T07:44:53;19.90;99.90
15483;DHT22;7843;50.330;7.312;2023-08-24T07:47:19;20.00;99.90
15483;DHT22;7843;50.330;7.312;2023-08-24T07:49:47;20.10;99.90
15483;DHT22;7843;50.330;7.312;2023-08-24T07:52:13;20.10;99.90
15483;DHT22;7843;50.330;7.312;2023-08-24T07:54:40;20.10;99.90
15483;DHT22;7843;50.330;7.312;2023-08-24T07:57:07;20.20;99.90
15483;DHT22;7843;50.330;7.312;2023-08-24T07:59:34;20.30;99.90
15483;DHT22;7843;50.330;7.312;2023-08-24T08:02:01;20.30;99.90
15483;DHT22;7843;50.330;7.312;2023-08-24T08:04:28;20.40;99.90
15483;DHT22;7843;50.330;7.312;2023-08-24T08:06:55;20.50;99.90
15483;DHT22;7843;50.330;7.312;2023-08-24T08:09:22;20.60;99.90
15483;DHT22;7843;50.330;7.312;2023-08-24T08:11:49;20.60;99.90
15483;DHT22;7843;50.330;7.312;2023-08-24T08:14:16;20.70;99.90
15483;DHT22;7843;50.330;7.312;2023-08-24T08:16:42;20.80;99.90
15483;DHT22;7843;50.330;7.312;2023-08-24T08:19:09;20.80;99.90
15483;DHT22;7843;50.330;7.312;2023-08-24T08:21:36;20.90;99.90
15483;DHT22;7843;50.330;7.312;2023-08-24T08:24:03;20.90;99.90
15483;DHT22;7843;50.330;7.312;2023-08-24T08:26:30;21.00;99.90
15483;DHT22;7843;50.330;7.312;2023-08-24T08:28:57;21.20;99.90
15483;DHT22;7843;50.330;7.312;2023-08-24T08:31:23;21.20;99.90
15483;DHT22;7843;50.330;7.312;2023-08-24T08:33:51;21.40;99.90
15483;DHT22;7843;50.330;7.312;2023-08-24T08:36:18;21.40;99.00
15483;DHT22;7843;50.330;7.312;2023-08-24T08:38:44;21.60;98.80
15483;DHT22;7843;50.330;7.312;2023-08-24T08:41:12;21.70;99.90
15483;DHT22;7843;50.330;7.312;2023-08-24T08:43:39;21.80;99.90
15483;DHT22;7843;50.330;7.312;2023-08-24T08:46:06;21.80;99.90
15483;DHT22;7843;50.330;7.312;2023-08-24T08:48:33;21.80;99.90
15483;DHT22;7843;50.330;7.312;2023-08-24T08:51:02;21.90;99.90
15483;DHT22;7843;50.330;7.312;2023-08-24T08:53:29;22.00;99.90
15483;DHT22;7843;50.330;7.312;2023-08-24T08:55:56;22.10;99.90
15483;DHT22;7843;50.330;7.312;2023-08-24T08:58:25;22.30;99.90
15483;DHT22;7843;50.330;7.312;2023-08-24T09:00:53;22.40;99.90
15483;DHT22;7843;50.330;7.312;2023-08-24T09:03:20;22.60;98.30
15483;DHT22;7843;50.330;7.312;2023-08-24T09:05:47;22.70;96.70
15483;DHT22;7843;50.330;7.312;2023-08-24T09:08:16;22.70;98.50
15483;DHT22;7843;50.330;7.312;2023-08-24T09:10:44;22.80;98.00
15483;DHT22;7843;50.330;7.312;2023-08-24T09:13:11;22.90;97.20
15483;DHT22;7843;50.330;7.312;2023-08-24T09:15:38;23.00;97.70
15483;DHT22;7843;50.330;7.312;2023-08-24T09:18:05;23.10;97.40
15483;DHT22;7843;50.330;7.312;2023-08-24T09:20:34;23.20;97.40
15483;DHT22;7843;50.330;7.312;2023-08-24T09:23:02;23.20;97.60
15483;DHT22;7843;50.330;7.312;2023-08-24T09:25:28;23.30;96.40
15483;DHT22;7843;50.330;7.312;2023-08-24T09:28:03;23.50;97.90
15483;DHT22;7843;50.330;7.312;2023-08-24T09:30:35;23.60;95.60
15483;DHT22;7843;50.330;7.312;2023-08-24T09:33:03;23.70;95.00
15483;DHT22;7843;50.330;7.312;2023-08-24T09:35:35;23.90;95.10
15483;DHT22;7843;50.330;7.312;2023-08-24T09:38:25;24.00;94.00
15483;DHT22;7843;50.330;7.312;2023-08-24T09:40:53;24.20;93.90
15483;DHT22;7843;50.330;7.312;2023-08-24T09:43:21;24.30;93.50
15483;DHT22;7843;50.330;7.312;2023-08-24T09:45:57;24.30;93.50
15483;DHT22;7843;50.330;7.312;2023-08-24T09:48:24;24.30;94.00
15483;DHT22;7843;50.330;7.312;2023-08-24T09:50:52;24.40;93.10
15483;DHT22;7843;50.330;7.312;2023-08-24T09:53:21;24.30;94.00
15483;DHT22;7843;50.330;7.312;2023-08-24T09:55:55;24.40;94.50
15483;DHT22;7843;50.330;7.312;2023-08-24T09:58:25;24.40;93.80
15483;DHT22;7843;50.330;7.312;2023-08-24T10:00:53;24.50;94.90
15483;DHT22;7843;50.330;7.312;2023-08-24T10:03:32;24.50;92.00
15483;DHT22;7843;50.330;7.312;2023-08-24T10:05:59;24.60;92.90
15483;DHT22;7843;50.330;7.312;2023-08-24T10:08:36;24.60;93.60
15483;DHT22;7843;50.330;7.312;2023-08-24T10:11:05;24.70;92.80
15483;DHT22;7843;50.330;7.312;2023-08-24T10:13:48;24.80;90.60
15483;DHT22;7843;50.330;7.312;2023-08-24T10:16:17;24.80;89.30
15483;DHT22;7843;50.330;7.312;2023-08-24T10:18:45;24.80;91.10
15483;DHT22;7843;50.330;7.312;2023-08-24T10:21:13;24.80;90.90
15483;DHT22;7843;50.330;7.312;2023-08-24T10:23:42;24.80;92.40
15483;DHT22;7843;50.330;7.312;2023-08-24T10:26:10;24.80;89.80
15483;DHT22;7843;50.330;7.312;2023-08-24T10:28:39;24.90;89.00
15483;DHT22;7843;50.330;7.312;2023-08-24T10:31:06;25.00;90.10
15483;DHT22;7843;50.330;7.312;2023-08-24T10:33:33;25.00;91.60
15483;DHT22;7843;50.330;7.312;2023-08-24T10:36:04;25.00;94.10
15483;DHT22;7843;50.330;7.312;2023-08-24T10:38:35;25.00;93.70
15483;DHT22;7843;50.330;7.312;2023-08-24T10:41:03;25.00;89.20
15483;DHT22;7843;50.330;7.312;2023-08-24T10:43:36;25.00;91.70
15483;DHT22;7843;50.330;7.312;2023-08-24T10:46:04;25.00;90.40
15483;DHT22;7843;50.330;7.312;2023-08-24T10:48:57;25.00;93.50
15483;DHT22;7843;50.330;7.312;2023-08-24T10:51:25;25.10;90.90
15483;DHT22;7843;50.330;7.312;2023-08-24T10:53:59;25.20;86.50
15483;DHT22;7843;50.330;7.312;2023-08-24T10:56:37;25.30;86.80
15483;DHT22;7843;50.330;7.312;2023-08-24T10:59:20;25.30;90.30
15483;DHT22;7843;50.330;7.312;2023-08-24T11:04:20;25.40;86.10
15483;DHT22;7843;50.330;7.312;2023-08-24T11:06:57;25.50;85.80
15483;DHT22;7843;50.330;7.312;2023-08-24T11:09:26;25.60;86.50
15483;DHT22;7843;50.330;7.312;2023-08-24T11:12:11;25.60;86.90
15483;DHT22;7843;50.330;7.312;2023-08-24T11:14:49;25.60;90.30
15483;DHT22;7843;50.330;7.312;2023-08-24T11:17:19;25.60;91.50
15483;DHT22;7843;50.330;7.312;2023-08-24T11:19:50;25.60;87.10
15483;DHT22;7843;50.330;7.312;2023-08-24T11:22:18;25.70;88.10
15483;DHT22;7843;50.330;7.312;2023-08-24T11:24:45;25.70;90.60
15483;DHT22;7843;50.330;7.312;2023-08-24T11:27:12;25.60;92.80
15483;DHT22;7843;50.330;7.312;2023-08-24T11:29:42;25.60;92.00
15483;DHT22;7843;50.330;7.312;2023-08-24T11:32:09;25.50;92.60
15483;DHT22;7843;50.330;7.312;2023-08-24T11:34:36;25.50;89.60
15483;DHT22;7843;50.330;7.312;2023-08-24T11:37:04;25.40;91.50
15483;DHT22;7843;50.330;7.312;2023-08-24T11:39:31;25.50;84.40
15483;DHT22;7843;50.330;7.312;2023-08-24T11:44:27;25.60;88.90
15483;DHT22;7843;50.330;7.312;2023-08-24T11:46:58;25.50;91.00
15483;DHT22;7843;50.330;7.312;2023-08-24T11:49:26;25.40;91.50
15483;DHT22;7843;50.330;7.312;2023-08-24T11:51:53;25.30;92.70
15483;DHT22;7843;50.330;7.312;2023-08-24T11:54:20;25.30;93.80
15483;DHT22;7843;50.330;7.312;2023-08-24T11:56:47;25.20;93.80
15483;DHT22;7843;50.330;7.312;2023-08-24T11:59:16;25.10;93.60
15483;DHT22;7843;50.330;7.312;2023-08-24T12:01:45;25.00;93.70
15483;DHT22;7843;50.330;7.312;2023-08-24T12:04:13;25.00;94.20
15483;DHT22;7843;50.330;7.312;2023-08-24T12:06:40;24.90;95.40
15483;DHT22;7843;50.330;7.312;2023-08-24T12:09:07;24.80;96.50
15483;DHT22;7843;50.330;7.312;2023-08-24T12:11:37;24.70;97.00
15483;DHT22;7843;50.330;7.312;2023-08-24T12:14:06;24.60;95.50
15483;DHT22;7843;50.330;7.312;2023-08-24T12:16:36;24.40;96.60
15483;DHT22;7843;50.330;7.312;2023-08-24T12:19:07;24.30;96.90
15483;DHT22;7843;50.330;7.312;2023-08-24T12:21:34;24.30;97.40
15483;DHT22;7843;50.330;7.312;2023-08-24T12:24:07;24.20;96.70
15483;DHT22;7843;50.330;7.312;2023-08-24T12:26:35;24.10;96.40
15483;DHT22;7843;50.330;7.312;2023-08-24T12:29:07;24.10;94.70
15483;DHT22;7843;50.330;7.312;2023-08-24T12:31:34;24.00;97.90
15483;DHT22;7843;50.330;7.312;2023-08-24T12:34:09;23.90;97.60
15483;DHT22;7843;50.330;7.312;2023-08-24T12:36:37;23.80;99.80
15483;DHT22;7843;50.330;7.312;2023-08-24T12:39:05;23.60;99.80
15483;DHT22;7843;50.330;7.312;2023-08-24T12:41:35;23.50;99.20
15483;DHT22;7843;50.330;7.312;2023-08-24T12:44:01;23.40;99.90
15483;DHT22;7843;50.330;7.312;2023-08-24T12:46:32;23.20;99.90
15483;DHT22;7843;50.330;7.312;2023-08-24T12:48:59;23.20;99.30
15483;DHT22;7843;50.330;7.312;2023-08-24T12:51:26;23.00;99.50
15483;DHT22;7843;50.330;7.312;2023-08-24T12:53:53;22.90;99.90
15483;DHT22;7843;50.330;7.312;2023-08-24T12:56:19;22.70;99.90
15483;DHT22;7843;50.330;7.312;2023-08-24T12:58:46;22.60;99.90
15483;DHT22;7843;50.330;7.312;2023-08-24T13:01:13;22.40;99.90
15483;DHT22;7843;50.330;7.312;2023-08-24T13:03:40;22.20;99.90
15483;DHT22;7843;50.330;7.312;2023-08-24T13:06:07;22.20;99.90
15483;DHT22;7843;50.330;7.312;2023-08-24T13:08:39;22.10;99.90
15483;DHT22;7843;50.330;7.312;2023-08-24T13:11:05;22.00;99.90
15483;DHT22;7843;50.330;7.312;2023-08-24T13:13:32;21.90;99.90
15483;DHT22;7843;50.330;7.312;2023-08-24T13:15:59;21.80;99.90
15483;DHT22;7843;50.330;7.312;2023-08-24T13:18:26;21.70;99.90
15483;DHT22;7843;50.330;7.312;2023-08-24T13:20:52;21.60;99.90
15483;DHT22;7843;50.330;7.312;2023-08-24T13:23:19;21.60;99.90
15483;DHT22;7843;50.330;7.312;2023-08-24T13:25:46;21.60;99.90
15483;DHT22;7843;50.330;7.312;2023-08-24T13:28:13;21.60;99.90
15483;DHT22;7843;50.330;7.312;2023-08-24T13:30:39;21.50;99.90
15483;DHT22;7843;50.330;7.312;2023-08-24T13:33:07;21.50;99.90
15483;DHT22;7843;50.330;7.312;2023-08-24T13:35:34;21.60;99.90
15483;DHT22;7843;50.330;7.312;2023-08-24T13:38:01;21.70;99.90
15483;DHT22;7843;50.330;7.312;2023-08-24T13:40:28;21.80;99.90
15483;DHT22;7843;50.330;7.312;2023-08-24T13:42:55;21.90;99.90
15483;DHT22;7843;50.330;7.312;2023-08-24T13:45:22;22.00;99.90
15483;DHT22;7843;50.330;7.312;2023-08-24T13:47:49;22.20;99.90
15483;DHT22;7843;50.330;7.312;2023-08-24T13:50:15;22.30;99.90
15483;DHT22;7843;50.330;7.312;2023-08-24T13:52:43;22.20;99.90
15483;DHT22;7843;50.330;7.312;2023-08-24T13:55:09;22.30;99.90
15483;DHT22;7843;50.330;7.312;2023-08-24T13:57:38;22.30;99.90
15483;DHT22;7843;50.330;7.312;2023-08-24T14:00:05;22.30;99.90
15483;DHT22;7843;50.330;7.312;2023-08-24T14:02:34;22.30;99.90
15483;DHT22;7843;50.330;7.312;2023-08-24T14:05:01;22.30;99.90
15483;DHT22;7843;50.330;7.312;2023-08-24T14:07:30;22.20;99.90
15483;DHT22;7843;50.330;7.312;2023-08-24T14:09:58;22.10;99.90
15483;DHT22;7843;50.330;7.312;2023-08-24T14:12:30;22.00;99.90
15483;DHT22;7843;50.330;7.312;2023-08-24T14:14:57;22.00;99.90
15483;DHT22;7843;50.330;7.312;2023-08-24T14:17:24;22.00;99.90
15483;DHT22;7843;50.330;7.312;2023-08-24T14:19:50;22.00;99.90
15483;DHT22;7843;50.330;7.312;2023-08-24T14:22:17;21.90;99.90
15483;DHT22;7843;50.330;7.312;2023-08-24T14:24:44;21.80;99.90
15483;DHT22;7843;50.330;7.312;2023-08-24T14:27:10;21.90;99.90
15483;DHT22;7843;50.330;7.312;2023-08-24T14:29:37;21.80;99.90
15483;DHT22;7843;50.330;7.312;2023-08-24T14:32:04;21.80;99.90
15483;DHT22;7843;50.330;7.312;2023-08-24T14:34:31;21.80;99.90
15483;DHT22;7843;50.330;7.312;2023-08-24T14:36:57;21.80;99.90
15483;DHT22;7843;50.330;7.312;2023-08-24T14:39:24;21.80;99.90
15483;DHT22;7843;50.330;7.312;2023-08-24T14:41:51;21.70;99.90
15483;DHT22;7843;50.330;7.312;2023-08-24T14:44:18;21.70;99.90
15483;DHT22;7843;50.330;7.312;2023-08-24T14:46:44;21.70;99.90
15483;DHT22;7843;50.330;7.312;2023-08-24T14:49:11;21.70;99.90
15483;DHT22;7843;50.330;7.312;2023-08-24T14:51:38;21.60;99.90
15483;DHT22;7843;50.330;7.312;2023-08-24T14:54:05;21.60;99.90
15483;DHT22;7843;50.330;7.312;2023-08-24T14:56:33;21.50;99.90
15483;DHT22;7843;50.330;7.312;2023-08-24T14:59:00;21.50;99.90
15483;DHT22;7843;50.330;7.312;2023-08-24T15:01:27;21.50;99.90
15483;DHT22;7843;50.330;7.312;2023-08-24T15:03:53;21.40;99.90
15483;DHT22;7843;50.330;7.312;2023-08-24T15:06:20;21.40;99.90
15483;DHT22;7843;50.330;7.312;2023-08-24T15:08:47;21.30;99.90
15483;DHT22;7843;50.330;7.312;2023-08-24T15:11:15;21.30;99.90
15483;DHT22;7843;50.330;7.312;2023-08-24T15:13:42;21.20;99.90
15483;DHT22;7843;50.330;7.312;2023-08-24T15:16:09;21.20;99.90
15483;DHT22;7843;50.330;7.312;2023-08-24T15:18:36;21.20;99.90
15483;DHT22;7843;50.330;7.312;2023-08-24T15:21:03;21.10;99.90
15483;DHT22;7843;50.330;7.312;2023-08-24T15:23:31;21.10;99.90
15483;DHT22;7843;50.330;7.312;2023-08-24T15:26:01;21.00;99.90
15483;DHT22;7843;50.330;7.312;2023-08-24T15:28:35;21.00;99.90
15483;DHT22;7843;50.330;7.312;2023-08-24T15:31:05;21.00;99.90
15483;DHT22;7843;50.330;7.312;2023-08-24T15:33:32;21.00;99.90
15483;DHT22;7843;50.330;7.312;2023-08-24T15:35:59;20.90;99.90
15483;DHT22;7843;50.330;7.312;2023-08-24T15:38:26;20.90;99.90
15483;DHT22;7843;50.330;7.312;2023-08-24T15:40:53;20.80;99.90
15483;DHT22;7843;50.330;7.312;2023-08-24T15:43:22;20.80;99.90
15483;DHT22;7843;50.330;7.312;2023-08-24T15:45:50;20.70;99.90
15483;DHT22;7843;50.330;7.312;2023-08-24T15:48:19;20.60;99.90
15483;DHT22;7843;50.330;7.312;2023-08-24T15:50:46;20.50;99.90
15483;DHT22;7843;50.330;7.312;2023-08-24T15:53:13;20.50;99.90
15483;DHT22;7843;50.330;7.312;2023-08-24T15:55:40;20.40;99.90